Terminal Aerodrome Forecast
Issued by NWS Chicago, IL

Home | Current Version | Previous Version | Text Only | Print | Product List | Glossary Off
Versions: 1 2 3 4 5 6 7 8 9 10 11 12 13 14 15 16 17 18 19 20 21 22 23 24

242
FTUS43 KLOT 110855 AAA
TAFRFD
TAF AMD
KRFD 110855Z 1109/1206 34005KT P6SM SCT120 SCT250
     FM112300 26005KT P6SM BKN050 BKN250=

USA.gov is the U.S. government's official web portal to all federal, state and local government web resources and services.